Time;durP1;ratioP1;P1;durP2;ratioP2;P2;SDS_P1;SDS_P2;PMS_P1;PMS_P2;Temp;Humidity;BMP_temperature;BMP_pressure;BME280_temperature;BME280_humidity;BME280_pressure;Samples;Min_cycle;Max_cycle;Signal;HPM_P1;HPM_P2
2022/03/13 00:07:18;;;;;;;30.52;14.13;;;4.80;99.90;;;;;;20918375;28;20137;-77
2022/03/13 00:17:19;;;;;;;32.67;15.63;;;4.80;99.90;;;;;;20913800;28;20048;-77
2022/03/13 00:27:21;;;;;;;31.38;15.05;;;4.80;99.90;;;;;;20896166;28;20033;-77
2022/03/13 00:37:21;;;;;;;;;;;4.90;99.90;;;;;;20905345;28;20056;-77
2022/03/13 00:47:23;;;;;;;34.08;14.10;;;4.80;99.90;;;;;;20925169;28;19947;-77
2022/03/13 00:57:23;;;;;;;33.30;14.80;;;4.80;99.90;;;;;;20898651;28;20455;-77
2022/03/13 01:07:25;;;;;;;32.40;14.73;;;4.30;99.90;;;;;;20929081;28;20025;-77
2022/03/13 01:17:26;;;;;;;29.52;13.45;;;4.00;99.90;;;;;;20929379;28;20033;-77
2022/03/13 01:27:27;;;;;;;29.27;13.65;;;4.20;99.90;;;;;;20913647;28;20060;-77
2022/03/13 01:37:30;;;;;;;31.50;15.37;;;4.30;99.90;;;;;;20912935;28;20083;-77
2022/03/13 01:47:31;;;;;;;30.45;14.18;;;4.00;99.90;;;;;;20912173;28;20025;-77
2022/03/13 01:57:37;;;;;;;28.27;14.43;;;4.00;99.90;;;;;;20911187;28;20047;-77
2022/03/13 02:07:38;;;;;;;32.78;14.38;;;3.90;99.90;;;;;;20912599;28;20040;-78
2022/03/13 02:17:38;;;;;;;34.22;13.95;;;3.80;99.90;;;;;;20914377;28;20083;-77
2022/03/13 02:27:39;;;;;;;30.57;12.43;;;3.40;99.90;;;;;;20914116;28;20082;-78
2022/03/13 02:37:41;;;;;;;29.50;14.23;;;3.40;99.90;;;;;;20914143;28;20271;-76
2022/03/13 02:47:42;;;;;;;29.30;14.10;;;3.40;99.90;;;;;;20912469;28;20777;-77
2022/03/13 02:57:43;;;;;;;32.72;14.45;;;3.40;99.90;;;;;;20855937;23;20052;-74
2022/03/13 03:07:44;;;;;;;;;;;3.50;99.90;;;;;;20825277;28;20026;-74
2022/03/13 03:17:45;;;;;;;39.20;16.07;;;3.40;99.90;;;;;;20823190;28;19919;-74
2022/03/13 03:27:45;;;;;;;;;;;3.30;99.90;;;;;;20831490;28;20280;-74
2022/03/13 03:37:51;;;;;;;28.73;13.38;;;3.00;99.90;;;;;;20840136;28;20437;-74
2022/03/13 03:47:52;;;;;;;34.13;15.25;;;3.00;99.90;;;;;;20839421;28;20030;-74
2022/03/13 03:57:53;;;;;;;34.53;16.48;;;2.80;99.90;;;;;;20838564;28;20079;-74
2022/03/13 04:07:54;;;;;;;40.42;16.73;;;2.70;99.90;;;;;;20838758;28;20643;-74
2022/03/13 04:17:55;;;;;;;36.90;16.17;;;2.50;99.90;;;;;;20840015;28;20115;-73
2022/03/13 04:27:57;;;;;;;41.03;17.05;;;2.30;99.90;;;;;;20836316;28;20084;-74
2022/03/13 04:37:58;;;;;;;35.65;16.20;;;2.10;99.90;;;;;;20834317;28;20124;-73
2022/03/13 04:47:58;;;;;;;37.13;16.98;;;2.00;99.90;;;;;;20834458;28;20483;-74
2022/03/13 04:57:59;;;;;;;35.20;15.77;;;2.10;99.90;;;;;;20833552;28;20479;-74
2022/03/13 05:08:03;;;;;;;42.33;17.02;;;2.00;99.90;;;;;;20832965;28;20040;-74
2022/03/13 05:18:04;;;;;;;33.20;15.30;;;1.90;99.90;;;;;;20831078;28;20041;-73
2022/03/13 05:28:06;;;;;;;30.63;14.82;;;1.70;99.90;;;;;;20813673;28;20384;-74
2022/03/13 05:38:07;;;;;;;40.97;15.65;;;1.80;99.90;;;;;;20830497;28;20112;-73
2022/03/13 05:48:10;;;;;;;35.88;14.75;;;1.40;99.90;;;;;;20828346;28;20065;-73
2022/03/13 05:58:13;;;;;;;41.50;16.35;;;2.00;99.90;;;;;;20828698;28;20040;-73
2022/03/13 06:08:14;;;;;;;36.88;13.50;;;2.20;99.90;;;;;;20827941;28;20080;-74
2022/03/13 06:18:15;;;;;;;33.47;14.98;;;2.20;99.90;;;;;;20827538;28;20084;-74
2022/03/13 06:28:18;;;;;;;38.25;14.52;;;2.40;99.90;;;;;;20825505;28;20037;-74
2022/03/13 06:38:19;;;;;;;32.55;14.73;;;2.50;99.90;;;;;;20825858;28;20450;-74
2022/03/13 06:48:21;;;;;;;34.05;14.95;;;2.90;99.90;;;;;;20807706;28;20488;-74
2022/03/13 06:58:24;;;;;;;36.15;16.20;;;3.30;99.90;;;;;;20824137;28;20412;-74
2022/03/13 07:08:24;;;;;;;;;;;3.50;99.90;;;;;;20823811;28;20033;-74
2022/03/13 07:18:26;;;;;;;34.50;14.20;;;4.20;99.90;;;;;;20721590;28;20497;-74
2022/03/13 07:28:29;;;;;;;34.97;13.80;;;4.40;99.90;;;;;;20741366;28;20065;-74
2022/03/13 07:38:30;;;;;;;27.25;13.25;;;5.10;99.90;;;;;;20769027;28;20034;-74
2022/03/13 07:48:34;;;;;;;27.63;13.73;;;6.40;99.90;;;;;;20702832;28;20110;-75
2022/03/13 07:58:35;;;;;;;31.17;14.07;;;6.30;99.90;;;;;;20720982;28;20042;-74
2022/03/13 08:08:36;;;;;;;28.17;13.90;;;7.70;99.90;;;;;;20745297;28;20659;-74
2022/03/13 08:18:38;;;;;;;32.33;14.60;;;8.30;99.90;;;;;;20739380;28;20501;-74
2022/03/13 08:28:41;;;;;;;30.35;15.48;;;8.40;99.90;;;;;;20733881;28;20061;-74
2022/03/13 08:38:42;;;;;;;30.33;13.68;;;8.60;99.90;;;;;;20739246;28;20030;-75
2022/03/13 08:48:42;;;;;;;33.80;14.80;;;10.00;99.90;;;;;;20720673;28;20096;-75
2022/03/13 08:58:43;;;;;;;28.70;15.20;;;10.40;99.90;;;;;;20860698;23;20049;-75
2022/03/13 09:08:44;;;;;;;32.87;14.57;;;10.20;99.90;;;;;;20896835;28;20057;-74
2022/03/13 09:18:46;;;;;;;21.55;11.32;;;11.10;99.90;;;;;;20905555;28;20112;-75
2022/03/13 09:28:47;;;;;;;20.48;11.57;;;12.10;99.90;;;;;;20893609;28;20595;-75
2022/03/13 09:38:48;;;;;;;23.57;11.40;;;12.20;99.90;;;;;;20894187;28;20032;-75
2022/03/13 09:48:52;;;;;;;20.97;10.80;;;12.20;99.90;;;;;;20890607;28;20123;-76
2022/03/13 09:58:53;;;;;;;19.20;9.60;;;12.90;99.90;;;;;;20908097;28;20048;-75
2022/03/13 10:08:54;;;;;;;17.47;9.93;;;14.60;99.90;;;;;;20891232;28;20586;-76
2022/03/13 10:19:13;;;;;;;19.53;10.60;;;15.50;98.90;;;;;;20903390;28;20058;-75
2022/03/13 10:29:32;;;;;;;15.95;9.70;;;15.30;99.20;;;;;;20909350;28;20132;-76
2022/03/13 10:39:34;;;;;;;16.15;9.48;;;15.50;98.90;;;;;;20888851;28;20036;-75
2022/03/13 10:49:44;;;;;;;16.20;8.82;;;16.10;97.60;;;;;;20888081;28;20033;-75
2022/03/13 10:59:45;;;;;;;15.85;8.05;;;15.70;96.60;;;;;;20889247;28;20044;-76
2022/03/13 11:09:46;;;;;;;14.13;8.17;;;16.20;94.30;;;;;;20885463;28;20041;-77
2022/03/13 11:19:51;;;;;;;17.10;8.50;;;16.80;93.80;;;;;;20850666;28;20045;-77
2022/03/13 11:29:53;;;;;;;15.63;9.07;;;17.80;94.70;;;;;;20887303;28;20099;-75
2022/03/13 11:40:01;;;;;;;13.35;7.75;;;17.50;94.00;;;;;;20886734;28;20495;-74
2022/03/13 11:50:02;;;;;;;14.57;7.78;;;18.00;91.10;;;;;;20892680;28;20055;-74
2022/03/13 12:00:27;;;;;;;;;;;19.20;86.00;;;;;;20899988;28;20047;-76
2022/03/13 12:10:49;;;;;;;14.68;8.55;;;20.10;85.30;;;;;;20896693;28;19920;-76
2022/03/13 12:20:51;;;;;;;14.07;8.40;;;18.00;86.80;;;;;;20897109;28;20045;-76
2022/03/13 12:30:59;;;;;;;;;;;19.20;87.90;;;;;;20898584;28;20048;-76
2022/03/13 12:41:05;;;;;;;15.20;8.80;;;19.00;85.60;;;;;;20898896;28;19963;-77
2022/03/13 12:51:06;;;;;;;14.15;8.27;;;19.90;83.90;;;;;;20900809;28;20044;-74
2022/03/13 13:01:18;;;;;;;14.85;7.85;;;20.00;81.50;;;;;;20895412;28;20565;-75
2022/03/13 13:11:37;;;;;;;19.42;8.32;;;20.40;79.70;;;;;;20895237;28;20037;-75
2022/03/13 13:21:42;;;;;;;19.20;8.90;;;21.10;77.10;;;;;;20907194;28;20041;-75
2022/03/13 13:31:43;;;;;;;16.63;8.55;;;20.70;76.10;;;;;;20904818;28;20068;-75
2022/03/13 13:41:56;;;;;;;14.50;8.47;;;20.00;82.10;;;;;;20896269;28;20064;-75
2022/03/13 13:52:09;;;;;;;17.58;8.45;;;20.30;78.00;;;;;;20892632;28;20052;-75
2022/03/13 14:02:13;;;;;;;18.17;9.63;;;19.80;76.90;;;;;;20891661;28;20043;-75
2022/03/13 14:12:14;;;;;;;14.63;7.72;;;20.90;73.20;;;;;;20927617;28;20040;-74
2022/03/13 14:22:16;;;;;;;14.73;8.70;;;21.30;74.70;;;;;;20914849;28;20112;-75
2022/03/13 14:32:17;;;;;;;;;;;21.30;75.40;;;;;;20848960;28;20079;-74
2022/03/13 14:42:18;;;;;;;15.87;7.70;;;18.30;75.30;;;;;;20851716;28;19964;-73
2022/03/13 14:52:19;;;;;;;16.03;8.33;;;17.20;78.30;;;;;;20844849;28;20349;-74
2022/03/13 15:02:21;;;;;;;13.57;7.68;;;17.70;79.20;;;;;;20870708;23;20081;-74
2022/03/13 15:12:24;;;;;;;12.20;6.73;;;19.30;75.20;;;;;;20768391;28;20157;-74
2022/03/13 15:22:26;;;;;;;9.57;5.75;;;19.80;70.90;;;;;;20781789;28;20399;-75
2022/03/13 15:32:28;;;;;;;9.80;5.22;;;19.20;68.90;;;;;;20911713;28;20461;-74
2022/03/13 15:42:28;;;;;;;11.17;5.70;;;19.20;69.40;;;;;;20857534;28;20033;-74
2022/03/13 15:52:29;;;;;;;6.97;4.33;;;19.70;67.60;;;;;;20839305;28;20028;-73
2022/03/13 16:02:31;;;;;;;8.57;4.72;;;18.90;67.10;;;;;;20838388;28;20040;-74
2022/03/13 16:12:32;;;;;;;12.63;5.33;;;18.10;69.40;;;;;;20837607;28;20120;-74
2022/03/13 16:22:34;;;;;;;9.70;5.23;;;17.30;70.80;;;;;;20836859;28;20036;-73
2022/03/13 16:32:35;;;;;;;8.70;4.68;;;16.80;71.90;;;;;;20834722;28;20029;-73
2022/03/13 16:42:35;;;;;;;9.00;5.10;;;16.20;75.60;;;;;;20835685;28;20034;-74
2022/03/13 16:52:37;;;;;;;8.33;4.37;;;15.70;75.60;;;;;;20865788;28;20083;-73
2022/03/13 17:02:38;;;;;;;9.53;4.53;;;15.00;80.40;;;;;;20914946;28;20458;-74
2022/03/13 17:12:40;;;;;;;9.03;4.43;;;14.60;79.10;;;;;;20915377;28;20039;-73
2022/03/13 17:22:41;;;;;;;8.32;4.15;;;14.00;82.30;;;;;;20913550;28;20450;-73
2022/03/13 17:32:42;;;;;;;11.03;5.17;;;13.40;84.50;;;;;;20912298;28;20033;-73
2022/03/13 17:42:43;;;;;;;11.57;3.80;;;12.50;87.80;;;;;;20911283;28;20130;-72
2022/03/13 17:52:44;;;;;;;7.13;3.90;;;12.30;88.00;;;;;;20911983;28;20064;-72
2022/03/13 18:02:45;;;;;;;8.13;4.30;;;12.50;85.40;;;;;;20854318;28;20451;-72
2022/03/13 18:12:45;;;;;;;9.33;4.10;;;11.80;90.10;;;;;;20827927;28;20036;-72
2022/03/13 18:22:46;;;;;;;9.13;3.97;;;11.50;91.20;;;;;;20827510;28;20030;-72
2022/03/13 18:32:48;;;;;;;5.07;3.23;;;11.10;91.60;;;;;;20827110;28;20093;-72
2022/03/13 18:42:49;;;;;;;7.43;3.80;;;10.30;93.20;;;;;;20826239;28;20041;-72
2022/03/13 18:52:49;;;;;;;7.33;3.20;;;10.30;92.70;;;;;;20825482;28;20036;-72
2022/03/13 19:02:53;;;;;;;8.43;4.33;;;9.80;94.20;;;;;;20824172;28;20120;-72
2022/03/13 19:13:00;;;;;;;9.65;4.45;;;9.90;95.20;;;;;;20824713;28;20025;-74
2022/03/13 19:23:04;;;;;;;8.40;4.22;;;9.60;96.60;;;;;;20822985;28;20037;-72
2022/03/13 19:33:05;;;;;;;12.57;4.85;;;9.80;95.90;;;;;;20831562;28;20152;-73
2022/03/13 19:43:06;;;;;;;13.00;6.37;;;10.00;95.30;;;;;;20859684;28;20060;-73
2022/03/13 19:53:07;;;;;;;25.50;10.43;;;10.00;97.70;;;;;;20903777;28;20059;-72
2022/03/13 20:03:08;;;;;;;30.47;12.87;;;10.00;99.40;;;;;;20842786;28;20033;-72
2022/03/13 20:13:13;;;;;;;32.30;14.27;;;10.30;99.90;;;;;;20833830;28;20475;-73
2022/03/13 20:23:14;;;;;;;31.48;14.80;;;10.30;99.90;;;;;;20836478;28;20036;-72
2022/03/13 20:33:16;;;;;;;35.60;16.30;;;10.30;99.90;;;;;;20858361;28;20057;-73
2022/03/13 20:43:16;;;;;;;;;;;10.20;99.90;;;;;;20838137;28;20109;-72
2022/03/13 21:03:31;;;;;;;46.67;20.70;;;10.50;99.90;;;;;;20839924;28;20303;-77
2022/03/13 21:13:32;;;;;;;46.43;20.40;;;10.40;99.90;;;;;;20834609;28;20042;-76
2022/03/13 21:23:33;;;;;;;49.63;21.00;;;10.30;99.90;;;;;;20849692;28;20103;-76
2022/03/13 21:33:36;;;;;;;50.90;21.65;;;10.30;99.90;;;;;;20813829;28;20319;-77
2022/03/13 21:43:37;;;;;;;42.93;19.93;;;10.20;99.90;;;;;;20830637;28;20027;-77
2022/03/13 21:53:38;;;;;;;42.97;19.93;;;10.30;99.90;;;;;;20829527;28;20461;-77
2022/03/13 22:03:39;;;;;;;49.83;20.73;;;10.30;99.90;;;;;;20827719;28;20111;-77
2022/03/13 22:13:41;;;;;;;38.27;17.43;;;10.30;99.90;;;;;;20826859;28;20117;-77
2022/03/13 22:23:43;;;;;;;27.27;12.90;;;10.30;99.90;;;;;;20826851;28;20518;-77
2022/03/13 22:33:44;;;;;;;;;;;10.20;99.90;;;;;;20814563;28;20117;-77
2022/03/13 22:43:45;;;;;;;16.95;8.38;;;10.10;99.90;;;;;;20788201;28;20371;-77
2022/03/13 22:53:46;;;;;;;11.73;6.80;;;9.90;99.90;;;;;;20773509;28;20072;-77
2022/03/13 23:03:47;;;;;;;9.60;5.73;;;9.70;99.90;;;;;;20763411;28;20785;-78
2022/03/13 23:13:49;;;;;;;7.50;4.77;;;9.60;99.90;;;;;;20778574;28;20029;-78
2022/03/13 23:23:50;;;;;;;7.40;4.75;;;9.60;99.90;;;;;;20814528;28;20037;-78
2022/03/13 23:33:53;;;;;;;7.20;4.28;;;9.40;99.90;;;;;;20781098;28;20419;-78
2022/03/13 23:43:54;;;;;;;4.80;2.83;;;9.40;99.90;;;;;;20766787;28;20049;-78
2022/03/13 23:53:54;;;;;;;4.27;2.03;;;9.30;99.90;;;;;;20772408;28;20112;-79
